Time;durP1;ratioP1;P1;durP2;ratioP2;P2;SDS_P1;SDS_P2;PMS_P1;PMS_P2;Temp;Humidity;BMP_temperature;BMP_pressure;BME280_temperature;BME280_humidity;BME280_pressure;Samples;Min_cycle;Max_cycle;Signal;HPM_P1;HPM_P2
2021/11/29 00:01:09;;;;;;;9.33;6.27;;;;;;;;;;5031999;28;20025;-55
2021/11/29 00:03:35;;;;;;;8.67;7.30;;;;;;;;;;5040062;28;20029;-52
2021/11/29 00:06:01;;;;;;;7.43;6.63;;;;;;;;;;5051713;28;20025;-55
2021/11/29 00:08:27;;;;;;;8.77;6.53;;;;;;;;;;5051292;28;20025;-56
2021/11/29 00:10:53;;;;;;;7.10;5.43;;;;;;;;;;5051957;28;20029;-54
2021/11/29 00:13:19;;;;;;;7.07;6.30;;;;;;;;;;5051754;28;20031;-54
2021/11/29 00:15:45;;;;;;;8.03;6.50;;;;;;;;;;5051657;28;20025;-56
2021/11/29 00:18:11;;;;;;;7.33;6.60;;;;;;;;;;5050897;28;20025;-53
2021/11/29 00:20:37;;;;;;;6.67;5.20;;;;;;;;;;5051698;28;20048;-56
2021/11/29 00:23:03;;;;;;;8.73;6.63;;;;;;;;;;5051810;28;20033;-54
2021/11/29 00:25:30;;;;;;;8.30;6.70;;;;;;;;;;5051829;28;20180;-56
2021/11/29 00:27:56;;;;;;;7.03;5.97;;;;;;;;;;5050722;28;20033;-54
2021/11/29 00:30:22;;;;;;;7.17;5.83;;;;;;;;;;5051818;28;20104;-52
2021/11/29 00:32:48;;;;;;;7.53;6.33;;;;;;;;;;5051439;28;20546;-56
2021/11/29 00:35:14;;;;;;;10.47;8.50;;;;;;;;;;5051955;28;20037;-54
2021/11/29 00:37:40;;;;;;;10.90;8.70;;;;;;;;;;5051706;28;20025;-53
2021/11/29 00:40:09;;;;;;;11.57;9.53;;;;;;;;;;5051231;28;20035;-55
2021/11/29 00:42:35;;;;;;;11.43;8.07;;;;;;;;;;5051399;28;20029;-54
2021/11/29 00:45:01;;;;;;;10.63;8.20;;;;;;;;;;5051712;28;20370;-54
2021/11/29 00:47:27;;;;;;;11.63;10.43;;;;;;;;;;5050972;28;20037;-55
2021/11/29 00:49:53;;;;;;;12.57;11.27;;;;;;;;;;5051162;28;20059;-55
2021/11/29 00:52:19;;;;;;;10.90;8.70;;;;;;;;;;5051589;28;20391;-57
2021/11/29 00:54:45;;;;;;;12.57;10.47;;;;;;;;;;5051866;28;20378;-52
2021/11/29 00:57:11;;;;;;;11.23;8.53;;;;;;;;;;5051627;28;20025;-54
2021/11/29 00:59:37;;;;;;;10.83;9.07;;;;;;;;;;5051577;28;20029;-54
2021/11/29 01:02:05;;;;;;;13.53;9.40;;;;;;;;;;5054601;28;20025;-56
2021/11/29 01:04:31;;;;;;;13.30;10.23;;;;;;;;;;5039502;28;20065;-54
2021/11/29 01:06:57;;;;;;;12.00;9.30;;;;;;;;;;5035031;28;20060;-54
2021/11/29 01:09:23;;;;;;;11.87;10.57;;;;;;;;;;5034553;28;20030;-51
2021/11/29 01:11:49;;;;;;;12.47;10.70;;;;;;;;;;5034973;28;20060;-54
2021/11/29 01:14:15;;;;;;;10.00;7.63;;;;;;;;;;5034752;28;20493;-52
2021/11/29 01:16:41;;;;;;;15.17;10.97;;;;;;;;;;5034660;28;20280;-56
2021/11/29 01:19:07;;;;;;;12.03;10.00;;;;;;;;;;5034259;28;20040;-54
2021/11/29 01:21:33;;;;;;;16.73;12.07;;;;;;;;;;5035083;28;20108;-54
2021/11/29 01:23:59;;;;;;;13.93;11.33;;;;;;;;;;5034724;28;20038;-56
2021/11/29 01:26:25;;;;;;;11.73;9.90;;;;;;;;;;5034777;28;20026;-54
2021/11/29 01:28:50;;;;;;;12.60;11.33;;;;;;;;;;5033796;28;20112;-56
2021/11/29 01:31:16;;;;;;;12.03;10.60;;;;;;;;;;5034974;28;20459;-54
2021/11/29 01:33:42;;;;;;;13.77;11.03;;;;;;;;;;5034666;28;20387;-55
2021/11/29 01:36:08;;;;;;;14.97;12.17;;;;;;;;;;5034362;28;20059;-55
2021/11/29 01:38:34;;;;;;;13.80;12.40;;;;;;;;;;5033739;28;20017;-55
2021/11/29 01:41:00;;;;;;;15.70;11.43;;;;;;;;;;5034726;28;20035;-56
2021/11/29 01:43:26;;;;;;;14.87;11.23;;;;;;;;;;5034190;28;20069;-56
2021/11/29 01:45:54;;;;;;;11.73;10.47;;;;;;;;;;5034330;28;20166;-57
2021/11/29 01:48:20;;;;;;;12.80;11.37;;;;;;;;;;5034074;28;20029;-56
2021/11/29 01:50:48;;;;;;;16.17;11.30;;;;;;;;;;5034319;28;20025;-55
2021/11/29 01:53:14;;;;;;;14.00;12.43;;;;;;;;;;5034335;28;20030;-55
2021/11/29 01:55:41;;;;;;;14.50;11.20;;;;;;;;;;5034184;28;20395;-56
2021/11/29 01:58:07;;;;;;;15.83;12.47;;;;;;;;;;5033416;28;20084;-53
2021/11/29 02:00:35;;;;;;;14.57;12.10;;;;;;;;;;5034191;28;20091;-55
2021/11/29 02:03:02;;;;;;;13.53;11.93;;;;;;;;;;5037125;28;20425;-56
2021/11/29 02:05:28;;;;;;;16.53;12.90;;;;;;;;;;5054043;28;20044;-56
2021/11/29 02:07:54;;;;;;;12.77;11.43;;;;;;;;;;5053233;28;20032;-55
2021/11/29 02:10:21;;;;;;;9.77;7.07;;;;;;;;;;5053877;28;20025;-54
2021/11/29 02:12:47;;;;;;;15.60;13.37;;;;;;;;;;5053020;28;20174;-55
2021/11/29 02:15:14;;;;;;;16.27;12.57;;;;;;;;;;5054148;28;20485;-56
2021/11/29 02:17:40;;;;;;;13.47;11.90;;;;;;;;;;5053728;28;20078;-53
2021/11/29 02:20:07;;;;;;;14.80;12.07;;;;;;;;;;5053339;28;20032;-55
2021/11/29 02:22:33;;;;;;;13.87;12.17;;;;;;;;;;5053865;28;20036;-56
2021/11/29 02:24:59;;;;;;;14.80;12.77;;;;;;;;;;5053585;28;20083;-55
2021/11/29 02:27:25;;;;;;;14.47;12.10;;;;;;;;;;5053406;28;20064;-53
2021/11/29 02:29:52;;;;;;;16.60;13.50;;;;;;;;;;5052959;28;20021;-55
2021/11/29 02:32:18;;;;;;;21.63;15.13;;;;;;;;;;5052321;28;20044;-55
2021/11/29 02:34:44;;;;;;;14.13;12.67;;;;;;;;;;5053458;28;20056;-56
2021/11/29 02:37:10;;;;;;;18.93;14.30;;;;;;;;;;5053408;28;20116;-52
2021/11/29 02:39:37;;;;;;;25.67;14.93;;;;;;;;;;5052577;28;20044;-54
2021/11/29 02:42:06;;;;;;;18.93;15.20;;;;;;;;;;5053055;28;20434;-54
2021/11/29 02:44:32;;;;;;;16.43;13.57;;;;;;;;;;5053250;28;20052;-55
2021/11/29 02:46:58;;;;;;;17.27;14.17;;;;;;;;;;5053114;28;20040;-52
2021/11/29 02:49:24;;;;;;;17.77;13.73;;;;;;;;;;5053076;28;20029;-53
2021/11/29 02:51:55;;;;;;;18.73;16.30;;;;;;;;;;5053203;28;20100;-56
2021/11/29 02:54:28;;;;;;;15.25;13.65;;;;;;;;;;5052839;28;20075;-55
2021/11/29 02:57:02;;;;;;;17.07;15.27;;;;;;;;;;5052831;28;20378;-55
2021/11/29 02:59:29;;;;;;;17.53;14.47;;;;;;;;;;5052425;28;20025;-53
2021/11/29 03:01:56;;;;;;;21.20;15.93;;;;;;;;;;5052817;28;20017;-55
2021/11/29 03:04:23;;;;;;;20.53;16.40;;;;;;;;;;5038351;28;20037;-56
2021/11/29 03:06:49;;;;;;;18.73;16.93;;;;;;;;;;5032715;28;20056;-54
2021/11/29 03:09:16;;;;;;;20.77;18.07;;;;;;;;;;5032094;28;20025;-52
2021/11/29 03:11:42;;;;;;;23.23;18.73;;;;;;;;;;5033022;28;20037;-54
2021/11/29 03:14:09;;;;;;;22.47;17.27;;;;;;;;;;5032923;28;20057;-53
2021/11/29 03:16:35;;;;;;;19.10;16.63;;;;;;;;;;5032635;28;20092;-55
2021/11/29 03:19:01;;;;;;;18.23;16.23;;;;;;;;;;5031810;28;20022;-53
2021/11/29 03:21:28;;;;;;;22.70;17.03;;;;;;;;;;5032557;28;20030;-54
2021/11/29 03:23:55;;;;;;;18.80;15.57;;;;;;;;;;5032357;28;20467;-54
2021/11/29 03:26:21;;;;;;;24.87;18.03;;;;;;;;;;5032696;28;20069;-52
2021/11/29 03:28:50;;;;;;;19.27;15.17;;;;;;;;;;5031890;28;20068;-52
2021/11/29 03:31:16;;;;;;;18.00;15.80;;;;;;;;;;5032564;28;20075;-52
2021/11/29 03:33:43;;;;;;;19.70;16.43;;;;;;;;;;5032151;28;20534;-54
2021/11/29 03:36:09;;;;;;;20.27;15.30;;;;;;;;;;5032240;28;20038;-53
2021/11/29 03:38:36;;;;;;;21.03;15.37;;;;;;;;;;5030568;28;20025;-51
2021/11/29 03:41:03;;;;;;;19.80;14.23;;;;;;;;;;5032241;28;20030;-52
2021/11/29 03:43:29;;;;;;;22.10;17.53;;;;;;;;;;5032258;28;20559;-53
2021/11/29 03:45:55;;;;;;;16.80;14.10;;;;;;;;;;5032217;28;20112;-57
2021/11/29 03:48:21;;;;;;;20.10;16.50;;;;;;;;;;5031280;28;20056;-54
2021/11/29 03:50:47;;;;;;;19.67;16.13;;;;;;;;;;5031983;28;20053;-55
2021/11/29 03:53:13;;;;;;;20.03;15.77;;;;;;;;;;5032342;28;20369;-55
2021/11/29 03:55:39;;;;;;;19.53;15.70;;;;;;;;;;5031940;28;20034;-53
2021/11/29 03:58:06;;;;;;;18.17;16.27;;;;;;;;;;5031494;28;20100;-55
2021/11/29 04:00:32;;;;;;;21.77;15.50;;;;;;;;;;5032135;28;20099;-52
2021/11/29 04:02:58;;;;;;;21.23;17.50;;;;;;;;;;5034510;28;20026;-56
2021/11/29 04:05:24;;;;;;;21.80;16.43;;;;;;;;;;5051695;28;20074;-54
2021/11/29 04:07:50;;;;;;;20.17;16.33;;;;;;;;;;5051347;28;20025;-56
2021/11/29 04:10:17;;;;;;;21.60;17.87;;;;;;;;;;5051968;28;20059;-56
2021/11/29 04:12:43;;;;;;;21.40;17.27;;;;;;;;;;5052067;28;20029;-54
2021/11/29 04:15:09;;;;;;;21.83;16.50;;;;;;;;;;5051799;28;20052;-54
2021/11/29 04:17:35;;;;;;;16.97;14.17;;;;;;;;;;5051688;28;20029;-53
2021/11/29 04:20:01;;;;;;;27.47;17.03;;;;;;;;;;5050885;28;20116;-53
2021/11/29 04:22:28;;;;;;;16.77;13.10;;;;;;;;;;5051924;28;20569;-55
2021/11/29 04:24:57;;;;;;;19.77;15.43;;;;;;;;;;5051696;28;20040;-55
2021/11/29 04:27:23;;;;;;;20.37;15.10;;;;;;;;;;5051664;28;20044;-56
2021/11/29 04:29:49;;;;;;;20.87;15.67;;;;;;;;;;5051032;28;20104;-56
2021/11/29 04:32:15;;;;;;;16.67;14.33;;;;;;;;;;5035816;28;20505;-56
2021/11/29 04:34:41;;;;;;;23.50;16.50;;;;;;;;;;5041050;28;20032;-54
2021/11/29 04:37:07;;;;;;;20.23;16.47;;;;;;;;;;5047893;28;20083;-55
2021/11/29 04:39:35;;;;;;;19.27;16.07;;;;;;;;;;5053171;28;20343;-54
2021/11/29 04:42:01;;;;;;;18.03;14.93;;;;;;;;;;5053990;28;20032;-55
2021/11/29 04:44:27;;;;;;;26.03;17.73;;;;;;;;;;5041815;28;20029;-52
2021/11/29 04:46:53;;;;;;;20.73;17.03;;;;;;;;;;5040214;28;20040;-52
2021/11/29 04:49:19;;;;;;;22.27;17.03;;;;;;;;;;5039270;28;20037;-52
2021/11/29 04:51:45;;;;;;;22.80;16.97;;;;;;;;;;5035802;28;20029;-52
2021/11/29 04:54:12;;;;;;;19.60;15.50;;;;;;;;;;5048950;28;20112;-56
2021/11/29 04:56:39;;;;;;;20.27;16.50;;;;;;;;;;5046171;28;20109;-50
2021/11/29 04:59:05;;;;;;;25.50;17.07;;;;;;;;;;5038838;28;20021;-51
2021/11/29 05:01:31;;;;;;;17.53;13.37;;;;;;;;;;5054650;28;20058;-53
2021/11/29 05:03:58;;;;;;;20.03;14.43;;;;;;;;;;5051272;28;20098;-52
2021/11/29 05:06:24;;;;;;;19.37;15.13;;;;;;;;;;5040404;28;20099;-51
2021/11/29 05:08:50;;;;;;;20.30;13.83;;;;;;;;;;5049192;28;20483;-51
2021/11/29 05:11:17;;;;;;;19.63;16.97;;;;;;;;;;5043673;28;20040;-56
2021/11/29 05:13:43;;;;;;;23.67;14.07;;;;;;;;;;5036008;28;20364;-56
2021/11/29 05:16:09;;;;;;;18.10;14.57;;;;;;;;;;5047146;28;20034;-57
2021/11/29 05:18:35;;;;;;;17.17;14.43;;;;;;;;;;5036515;28;20098;-56
2021/11/29 05:21:01;;;;;;;17.83;15.53;;;;;;;;;;5048082;28;20025;-56
2021/11/29 05:23:27;;;;;;;17.63;13.80;;;;;;;;;;5043171;28;20120;-56
2021/11/29 05:25:53;;;;;;;16.37;12.97;;;;;;;;;;5036627;28;20041;-52
2021/11/29 05:28:19;;;;;;;14.80;12.73;;;;;;;;;;5053537;28;20378;-52
2021/11/29 05:30:45;;;;;;;12.73;11.13;;;;;;;;;;5034509;28;20022;-55
2021/11/29 05:33:12;;;;;;;17.43;12.90;;;;;;;;;;5036736;28;20503;-52
2021/11/29 05:35:38;;;;;;;16.10;13.50;;;;;;;;;;5034564;28;20118;-52
2021/11/29 05:38:03;;;;;;;21.47;13.40;;;;;;;;;;5052016;28;20448;-56
2021/11/29 05:40:30;;;;;;;13.23;11.00;;;;;;;;;;5052324;28;20499;-53
2021/11/29 05:42:56;;;;;;;18.77;15.10;;;;;;;;;;5036370;28;20037;-52
2021/11/29 05:45:22;;;;;;;15.53;11.73;;;;;;;;;;5033525;28;20471;-53
2021/11/29 05:47:48;;;;;;;16.33;14.00;;;;;;;;;;5049738;28;20041;-55
2021/11/29 05:50:15;;;;;;;20.80;15.23;;;;;;;;;;5052329;28;20382;-54
2021/11/29 05:52:41;;;;;;;19.80;15.77;;;;;;;;;;5043448;28;20544;-55
2021/11/29 05:55:08;;;;;;;16.30;13.87;;;;;;;;;;5054077;28;20036;-56
2021/11/29 05:57:34;;;;;;;20.97;13.43;;;;;;;;;;5047484;28;20078;-54
2021/11/29 06:00:00;;;;;;;18.03;12.93;;;;;;;;;;5036728;28;20880;-54
2021/11/29 06:02:26;;;;;;;21.17;15.43;;;;;;;;;;5046083;28;20033;-55
2021/11/29 06:04:52;;;;;;;20.30;15.87;;;;;;;;;;5040505;28;20103;-55
2021/11/29 06:07:18;;;;;;;15.17;12.77;;;;;;;;;;5047164;28;20041;-56
2021/11/29 06:09:44;;;;;;;17.23;14.67;;;;;;;;;;5049561;28;20524;-55
2021/11/29 06:12:10;;;;;;;15.53;12.63;;;;;;;;;;5034058;28;20364;-54
2021/11/29 06:14:36;;;;;;;25.23;15.07;;;;;;;;;;5041882;28;20063;-54
2021/11/29 06:17:02;;;;;;;16.37;13.27;;;;;;;;;;5041736;28;20040;-52
2021/11/29 06:19:28;;;;;;;13.27;11.77;;;;;;;;;;5037084;28;20036;-53
2021/11/29 06:21:54;;;;;;;18.43;14.50;;;;;;;;;;5044368;28;20025;-53
2021/11/29 06:24:20;;;;;;;16.20;14.47;;;;;;;;;;5045045;28;20036;-54
2021/11/29 06:26:46;;;;;;;15.03;12.03;;;;;;;;;;5043491;28;20479;-52
2021/11/29 06:29:12;;;;;;;16.90;12.53;;;;;;;;;;5040850;28;20094;-52
2021/11/29 06:31:38;;;;;;;15.40;12.77;;;;;;;;;;5034402;28;20026;-52
2021/11/29 06:34:05;;;;;;;11.63;10.50;;;;;;;;;;5039111;28;20119;-54
2021/11/29 06:36:31;;;;;;;13.73;10.10;;;;;;;;;;5041029;28;20032;-55
2021/11/29 06:38:57;;;;;;;15.93;11.67;;;;;;;;;;5042107;28;20386;-56
2021/11/29 06:41:24;;;;;;;12.83;11.03;;;;;;;;;;5044593;28;20025;-53
2021/11/29 06:43:50;;;;;;;12.83;10.03;;;;;;;;;;5045395;28;20033;-56
2021/11/29 06:46:16;;;;;;;11.03;9.63;;;;;;;;;;5043081;28;20048;-56
2021/11/29 06:48:43;;;;;;;16.13;14.33;;;;;;;;;;5050574;28;20028;-54
2021/11/29 06:51:09;;;;;;;12.73;10.53;;;;;;;;;;5046009;28;20045;-52
2021/11/29 06:53:35;;;;;;;12.70;10.57;;;;;;;;;;5042534;28;20079;-54
2021/11/29 06:56:01;;;;;;;16.67;11.37;;;;;;;;;;5039268;28;20025;-56
2021/11/29 06:58:28;;;;;;;11.50;10.23;;;;;;;;;;5051764;28;20379;-55
2021/11/29 07:00:54;;;;;;;13.83;11.80;;;;;;;;;;5034229;28;20052;-52
2021/11/29 07:03:21;;;;;;;15.13;11.00;;;;;;;;;;5043467;28;20060;-52
2021/11/29 07:05:48;;;;;;;18.83;11.90;;;;;;;;;;5042070;28;20056;-55
2021/11/29 07:08:15;;;;;;;11.47;9.13;;;;;;;;;;5038166;28;20045;-54
2021/11/29 07:10:41;;;;;;;11.07;9.80;;;;;;;;;;5049160;28;20025;-54
2021/11/29 07:13:08;;;;;;;11.63;9.67;;;;;;;;;;5049201;28;20025;-56
2021/11/29 07:15:34;;;;;;;9.67;8.27;;;;;;;;;;5034316;28;20032;-54
2021/11/29 07:18:00;;;;;;;15.73;9.67;;;;;;;;;;5032581;28;20057;-53
2021/11/29 07:20:26;;;;;;;9.87;7.90;;;;;;;;;;5046287;28;20678;-54
2021/11/29 07:22:52;;;;;;;13.93;9.30;;;;;;;;;;5038556;28;20378;-55
2021/11/29 07:25:18;;;;;;;13.83;10.90;;;;;;;;;;5044965;28;20029;-53
2021/11/29 07:27:44;;;;;;;16.53;10.00;;;;;;;;;;5047738;28;20036;-56
2021/11/29 07:30:12;;;;;;;9.37;8.13;;;;;;;;;;5048677;28;20479;-55
2021/11/29 07:32:38;;;;;;;10.77;7.83;;;;;;;;;;5040771;28;20150;-56
2021/11/29 07:35:04;;;;;;;11.53;9.47;;;;;;;;;;5039372;28;20086;-52
2021/11/29 07:37:30;;;;;;;9.93;8.50;;;;;;;;;;5050172;28;20100;-52
2021/11/29 07:39:56;;;;;;;18.33;9.20;;;;;;;;;;5042852;28;20025;-53
2021/11/29 07:42:23;;;;;;;8.30;7.40;;;;;;;;;;5044658;28;20029;-50
2021/11/29 07:44:49;;;;;;;10.10;8.10;;;;;;;;;;5049654;28;20133;-55
2021/11/29 07:47:15;;;;;;;10.30;7.67;;;;;;;;;;5044161;28;20317;-54
2021/11/29 07:49:41;;;;;;;7.90;6.27;;;;;;;;;;5040216;28;20021;-53
2021/11/29 07:52:13;;;;;;;12.80;8.50;;;;;;;;;;5042518;28;20079;-54
2021/11/29 07:54:39;;;;;;;9.47;7.67;;;;;;;;;;5034825;28;20040;-55
2021/11/29 07:57:05;;;;;;;8.03;5.83;;;;;;;;;;5045586;28;20541;-55
2021/11/29 07:59:31;;;;;;;12.87;7.67;;;;;;;;;;5041081;28;20036;-51
2021/11/29 08:01:59;;;;;;;8.60;7.30;;;;;;;;;;5042874;28;20021;-54
2021/11/29 08:04:25;;;;;;;8.00;6.97;;;;;;;;;;5036891;28;20046;-53
2021/11/29 08:06:51;;;;;;;10.07;6.60;;;;;;;;;;5038421;28;20545;-56
2021/11/29 08:09:17;;;;;;;14.43;6.27;;;;;;;;;;5036105;28;20037;-52
2021/11/29 08:11:43;;;;;;;9.23;7.27;;;;;;;;;;5039535;28;20025;-53
2021/11/29 08:14:09;;;;;;;10.80;7.07;;;;;;;;;;5031145;28;20034;-53
2021/11/29 08:16:35;;;;;;;5.90;4.87;;;;;;;;;;5033435;28;20053;-53
2021/11/29 08:19:01;;;;;;;8.00;6.00;;;;;;;;;;5037737;28;20029;-52
2021/11/29 08:21:27;;;;;;;7.87;5.73;;;;;;;;;;5044282;28;20498;-52
2021/11/29 08:23:53;;;;;;;12.37;7.00;;;;;;;;;;5046834;28;20186;-53
2021/11/29 08:26:19;;;;;;;7.30;5.57;;;;;;;;;;5044710;28;20036;-54
2021/11/29 08:28:45;;;;;;;6.40;5.33;;;;;;;;;;5045007;28;20052;-54
2021/11/29 08:31:11;;;;;;;7.73;5.63;;;;;;;;;;5037407;28;20030;-50
2021/11/29 08:33:37;;;;;;;11.00;7.63;;;;;;;;;;5038339;28;20587;-51
2021/11/29 08:36:03;;;;;;;10.40;5.93;;;;;;;;;;5036832;28;20566;-53
2021/11/29 08:38:29;;;;;;;12.53;7.50;;;;;;;;;;5041103;28;20049;-55
2021/11/29 08:40:55;;;;;;;7.77;5.43;;;;;;;;;;5034833;28;20029;-52
2021/11/29 08:43:22;;;;;;;6.67;5.30;;;;;;;;;;5038020;28;20115;-55
2021/11/29 08:45:49;;;;;;;7.57;5.30;;;;;;;;;;5039527;28;20449;-55
2021/11/29 08:48:15;;;;;;;11.27;7.33;;;;;;;;;;5044987;28;20140;-54
2021/11/29 08:50:44;;;;;;;7.67;6.73;;;;;;;;;;5050745;28;20099;-56
2021/11/29 08:53:12;;;;;;;9.37;6.63;;;;;;;;;;5038341;28;20450;-54
2021/11/29 08:55:38;;;;;;;7.80;5.60;;;;;;;;;;5040090;28;20075;-54
2021/11/29 08:58:06;;;;;;;8.83;6.17;;;;;;;;;;5045077;28;20033;-51
2021/11/29 09:00:32;;;;;;;8.00;5.90;;;;;;;;;;5036045;28;20089;-56
2021/11/29 09:02:59;;;;;;;8.97;5.67;;;;;;;;;;5038564;28;20383;-53
2021/11/29 09:05:25;;;;;;;12.47;6.07;;;;;;;;;;5043880;28;20080;-54
2021/11/29 09:07:52;;;;;;;6.83;6.03;;;;;;;;;;5042856;28;20475;-55
2021/11/29 09:10:19;;;;;;;8.13;5.83;;;;;;;;;;5040706;28;20449;-56
2021/11/29 09:12:45;;;;;;;10.00;6.00;;;;;;;;;;5047255;28;20020;-51
2021/11/29 09:15:12;;;;;;;9.10;6.00;;;;;;;;;;5044473;28;20039;-55
2021/11/29 09:17:38;;;;;;;8.87;6.13;;;;;;;;;;5037657;28;20033;-53
2021/11/29 09:20:05;;;;;;;6.83;4.77;;;;;;;;;;5032944;28;20098;-56
2021/11/29 09:22:31;;;;;;;8.17;5.80;;;;;;;;;;5043235;28;20037;-54
2021/11/29 09:25:00;;;;;;;5.80;4.70;;;;;;;;;;5040916;28;20349;-53
2021/11/29 09:27:26;;;;;;;7.03;6.00;;;;;;;;;;5044774;28;20423;-55
2021/11/29 09:29:52;;;;;;;7.80;4.17;;;;;;;;;;5050488;28;20017;-55
2021/11/29 09:32:20;;;;;;;5.13;4.23;;;;;;;;;;5044798;28;20036;-54
2021/11/29 09:34:47;;;;;;;9.93;5.67;;;;;;;;;;5051686;28;20025;-54
2021/11/29 09:37:14;;;;;;;6.50;4.60;;;;;;;;;;5052875;28;20120;-56
2021/11/29 09:39:40;;;;;;;9.27;4.87;;;;;;;;;;5037881;28;20379;-53
2021/11/29 09:42:06;;;;;;;7.80;4.47;;;;;;;;;;5047708;28;20031;-52
2021/11/29 09:44:32;;;;;;;7.30;4.53;;;;;;;;;;5044132;28;20037;-54
2021/11/29 09:46:58;;;;;;;7.00;4.33;;;;;;;;;;5046029;28;20025;-56
2021/11/29 09:49:28;;;;;;;4.90;4.13;;;;;;;;;;5040380;28;20058;-55
2021/11/29 09:52:08;;;;;;;5.90;4.23;;;;;;;;;;5041094;28;20044;-52
2021/11/29 09:54:34;;;;;;;5.57;3.87;;;;;;;;;;5053997;28;20447;-55
2021/11/29 09:57:00;;;;;;;4.20;3.47;;;;;;;;;;5052190;28;20057;-54
2021/11/29 09:59:28;;;;;;;8.23;4.43;;;;;;;;;;5042900;28;20029;-52
2021/11/29 10:01:54;;;;;;;4.57;3.27;;;;;;;;;;5036564;28;20025;-56
2021/11/29 10:04:21;;;;;;;5.90;3.57;;;;;;;;;;5036328;28;20034;-53
2021/11/29 10:06:53;;;;;;;4.23;2.63;;;;;;;;;;5046294;28;20040;-53
2021/11/29 10:09:28;;;;;;;3.97;3.00;;;;;;;;;;5052629;28;20068;-56
2021/11/29 10:11:58;;;;;;;4.80;3.10;;;;;;;;;;5047130;28;20029;-57
2021/11/29 10:14:23;;;;;;;4.47;2.87;;;;;;;;;;5036991;28;20055;-55
2021/11/29 10:16:57;;;;;;;4.23;3.23;;;;;;;;;;5044228;28;20360;-53
2021/11/29 10:19:23;;;;;;;4.55;2.88;;;;;;;;;;5048309;28;20025;-55
2021/11/29 10:21:49;;;;;;;5.67;3.33;;;;;;;;;;5038636;28;20090;-54
2021/11/29 10:24:18;;;;;;;5.93;3.30;;;;;;;;;;5040946;28;20068;-56
2021/11/29 10:26:51;;;;;;;4.17;2.90;;;;;;;;;;5042432;28;20114;-56
2021/11/29 10:29:18;;;;;;;7.03;3.50;;;;;;;;;;5036217;28;20022;-53
2021/11/29 10:31:48;;;;;;;3.23;2.33;;;;;;;;;;5033904;28;20033;-54
2021/11/29 10:34:15;;;;;;;5.13;3.30;;;;;;;;;;5045254;28;20037;-55
2021/11/29 10:36:44;;;;;;;6.03;3.47;;;;;;;;;;5038172;28;20416;-56
2021/11/29 10:39:12;;;;;;;5.00;2.75;;;;;;;;;;5034712;28;20454;-56
2021/11/29 10:41:39;;;;;;;4.70;3.10;;;;;;;;;;5044501;28;20021;-56
2021/11/29 10:44:07;;;;;;;4.23;2.73;;;;;;;;;;5037832;28;20044;-51
2021/11/29 10:46:35;;;;;;;5.23;2.73;;;;;;;;;;5034317;28;20519;-54
2021/11/29 10:49:08;;;;;;;4.30;2.15;;;;;;;;;;5038011;28;20463;-54
2021/11/29 10:51:34;;;;;;;4.07;2.43;;;;;;;;;;5052842;28;20120;-55
2021/11/29 10:54:01;;;;;;;6.50;2.53;;;;;;;;;;5053173;28;20033;-54
2021/11/29 10:56:28;;;;;;;4.00;2.60;;;;;;;;;;5052250;28;20059;-56
2021/11/29 10:58:56;;;;;;;4.43;2.87;;;;;;;;;;5041357;28;20029;-57
2021/11/29 11:01:33;;;;;;;11.77;2.83;;;;;;;;;;5037602;28;20032;-55
2021/11/29 11:03:59;;;;;;;5.50;2.97;;;;;;;;;;5039117;28;20033;-53
2021/11/29 11:06:36;;;;;;;6.37;2.87;;;;;;;;;;5044232;28;20523;-54
2021/11/29 11:09:09;;;;;;;5.03;2.33;;;;;;;;;;5032339;28;20036;-51
2021/11/29 11:11:41;;;;;;;7.13;2.80;;;;;;;;;;5033028;28;20036;-54
2021/11/29 11:14:14;;;;;;;6.13;3.23;;;;;;;;;;5033104;28;20451;-56
2021/11/29 11:16:40;;;;;;;6.80;3.20;;;;;;;;;;5032751;28;20501;-53
2021/11/29 11:19:09;;;;;;;4.03;2.77;;;;;;;;;;5032277;28;20033;-53
2021/11/29 11:21:35;;;;;;;4.70;2.77;;;;;;;;;;5033035;28;20025;-56
2021/11/29 11:24:20;;;;;;;4.67;2.63;;;;;;;;;;5033009;28;20147;-52
2021/11/29 11:26:47;;;;;;;4.35;2.60;;;;;;;;;;5032615;28;20056;-56
2021/11/29 11:29:13;;;;;;;4.03;2.95;;;;;;;;;;5042381;28;20332;-52
2021/11/29 11:31:40;;;;;;;7.53;4.57;;;;;;;;;;5052720;28;20423;-55
2021/11/29 11:34:06;;;;;;;4.03;2.63;;;;;;;;;;5052569;28;20048;-55
2021/11/29 11:36:32;;;;;;;6.20;2.33;;;;;;;;;;5052355;28;20483;-53
2021/11/29 11:39:04;;;;;;;7.30;3.27;;;;;;;;;;5051887;28;20056;-52
2021/11/29 11:41:32;;;;;;;7.03;3.37;;;;;;;;;;5052234;28;20378;-55
2021/11/29 11:43:58;;;;;;;4.33;2.93;;;;;;;;;;5039698;28;20436;-52
2021/11/29 11:46:25;;;;;;;5.30;2.40;;;;;;;;;;5032413;28;20025;-52
2021/11/29 11:48:51;;;;;;;5.40;3.03;;;;;;;;;;5031923;28;20458;-54
2021/11/29 11:51:17;;;;;;;4.00;2.53;;;;;;;;;;5032400;28;20467;-55
2021/11/29 11:53:43;;;;;;;6.30;3.43;;;;;;;;;;5032329;28;20025;-54
2021/11/29 11:56:09;;;;;;;5.73;2.47;;;;;;;;;;5033357;28;20018;-55
2021/11/29 11:58:42;;;;;;;7.73;3.37;;;;;;;;;;5051537;28;20029;-53
2021/11/29 12:01:12;;;;;;;5.53;2.50;;;;;;;;;;5051951;28;20451;-53
2021/11/29 12:03:42;;;;;;;4.30;2.58;;;;;;;;;;5043975;28;20382;-53
2021/11/29 12:06:13;;;;;;;3.60;2.60;;;;;;;;;;5031985;28;20029;-52
2021/11/29 12:08:41;;;;;;;3.67;2.50;;;;;;;;;;5041594;28;20108;-53
2021/11/29 12:11:26;;;;;;;11.07;3.27;;;;;;;;;;5045129;28;20025;-51
2021/11/29 12:14:01;;;;;;;5.17;2.27;;;;;;;;;;5051962;28;20028;-53
2021/11/29 12:16:35;;;;;;;4.53;2.30;;;;;;;;;;5044134;28;20365;-51
2021/11/29 12:19:01;;;;;;;4.53;2.63;;;;;;;;;;5031129;28;20025;-52
2021/11/29 12:21:33;;;;;;;3.03;2.07;;;;;;;;;;5036024;28;20495;-53
2021/11/29 12:23:59;;;;;;;8.50;3.13;;;;;;;;;;5038519;28;20384;-55
2021/11/29 12:26:46;;;;;;;2.90;1.80;;;;;;;;;;5031659;28;20026;-53
2021/11/29 12:29:21;;;;;;;4.30;2.07;;;;;;;;;;5030318;28;20425;-55
2021/11/29 12:31:51;;;;;;;3.93;2.83;;;;;;;;;;5031677;28;20026;-53
2021/11/29 12:34:37;;;;;;;2.30;1.95;;;;;;;;;;5031874;28;20459;-54
2021/11/29 12:37:03;;;;;;;4.13;2.27;;;;;;;;;;5031800;28;20045;-51
2021/11/29 12:39:44;;;;;;;4.63;2.73;;;;;;;;;;5031933;28;20042;-55
2021/11/29 12:42:33;;;;;;;6.03;3.47;;;;;;;;;;5031805;28;20032;-55
2021/11/29 12:45:06;;;;;;;10.73;2.90;;;;;;;;;;5030387;28;20049;-52
2021/11/29 12:47:49;;;;;;;2.70;1.63;;;;;;;;;;5030273;28;20380;-54
2021/11/29 12:50:28;;;;;;;3.20;2.17;;;;;;;;;;5031382;28;20030;-54
2021/11/29 12:53:07;;;;;;;6.93;4.38;;;;;;;;;;5042033;28;20390;-56
2021/11/29 12:55:33;;;;;;;5.53;2.67;;;;;;;;;;5052646;28;20036;-54
2021/11/29 12:58:18;;;;;;;3.17;1.97;;;;;;;;;;5054728;28;20375;-56
2021/11/29 13:01:16;;;;;;;3.20;1.90;;;;;;;;;;5054712;28;20032;-53
2021/11/29 13:03:52;;;;;;;7.03;3.17;;;;;;;;;;5046477;28;20182;-51
2021/11/29 13:06:28;;;;;;;3.13;2.13;;;;;;;;;;5042870;28;20028;-56
2021/11/29 13:08:58;;;;;;;3.53;2.23;;;;;;;;;;5054481;28;20128;-52
2021/11/29 13:11:29;;;;;;;;;;;;;;;;;;5055679;28;20070;-51
2021/11/29 13:13:56;;;;;;;4.47;2.28;;;;;;;;;;5054147;28;19905;-53
2021/11/29 13:16:25;;;;;;;3.17;2.20;;;;;;;;;;5054865;28;20060;-54
2021/11/29 13:18:54;;;;;;;2.90;1.90;;;;;;;;;;5052401;28;20025;-52
2021/11/29 13:21:29;;;;;;;10.23;3.77;;;;;;;;;;5034832;28;20025;-56
2021/11/29 13:23:59;;;;;;;4.80;3.63;;;;;;;;;;5035249;28;20375;-56
2021/11/29 13:26:26;;;;;;;4.07;2.87;;;;;;;;;;5034894;28;20446;-55
2021/11/29 13:28:53;;;;;;;7.03;3.33;;;;;;;;;;5034348;28;20079;-53
2021/11/29 13:31:25;;;;;;;4.90;3.20;;;;;;;;;;5049214;28;20036;-56
2021/11/29 13:33:51;;;;;;;3.87;3.27;;;;;;;;;;5054672;28;20131;-57
2021/11/29 13:36:17;;;;;;;4.60;3.77;;;;;;;;;;5054528;28;20067;-54
2021/11/29 13:38:43;;;;;;;3.10;2.80;;;;;;;;;;5054316;28;20105;-55
2021/11/29 13:41:16;;;;;;;4.03;3.03;;;;;;;;;;5054543;28;20065;-51
2021/11/29 13:43:43;;;;;;;5.27;4.03;;;;;;;;;;5052739;28;20112;-56
2021/11/29 13:46:13;;;;;;;4.20;3.07;;;;;;;;;;5053708;28;20062;-52
2021/11/29 13:48:39;;;;;;;5.05;3.45;;;;;;;;;;5053573;28;20086;-56
2021/11/29 13:51:05;;;;;;;5.03;4.30;;;;;;;;;;5054599;28;20351;-52
2021/11/29 13:53:33;;;;;;;5.17;4.13;;;;;;;;;;5054525;28;20028;-52
2021/11/29 13:55:59;;;;;;;7.20;4.10;;;;;;;;;;5054373;28;20032;-53
2021/11/29 13:58:30;;;;;;;9.83;4.13;;;;;;;;;;5044927;28;20029;-55
2021/11/29 14:01:00;;;;;;;4.30;3.72;;;;;;;;;;5034123;28;20065;-54
2021/11/29 14:03:27;;;;;;;3.88;3.10;;;;;;;;;;5040948;28;20064;-54
2021/11/29 14:05:54;;;;;;;4.47;3.73;;;;;;;;;;5054140;28;20033;-56
2021/11/29 14:08:21;;;;;;;5.67;4.13;;;;;;;;;;5052546;28;20025;-55
2021/11/29 14:10:58;;;;;;;6.83;4.40;;;;;;;;;;5054267;28;20031;-51
2021/11/29 14:13:24;;;;;;;7.30;4.90;;;;;;;;;;5053257;28;20025;-57
2021/11/29 14:15:55;;;;;;;4.67;3.67;;;;;;;;;;5053575;28;20467;-55
2021/11/29 14:18:29;;;;;;;4.47;3.03;;;;;;;;;;5053429;28;20032;-53
2021/11/29 14:20:56;;;;;;;8.93;4.90;;;;;;;;;;5054110;28;20029;-57
2021/11/29 14:23:31;;;;;;;6.17;4.03;;;;;;;;;;5053688;28;20024;-54
2021/11/29 14:25:57;;;;;;;5.70;3.67;;;;;;;;;;5053737;28;20037;-52
2021/11/29 14:28:23;;;;;;;10.37;4.07;;;;;;;;;;5034633;28;20364;-53
2021/11/29 14:30:49;;;;;;;5.90;4.37;;;;;;;;;;5034124;28;20336;-51
2021/11/29 14:33:15;;;;;;;4.73;3.60;;;;;;;;;;5033707;28;20052;-53